Time;durP1;ratioP1;P1;durP2;ratioP2;P2;SDS_P1;SDS_P2;PMS_P1;PMS_P2;Temp;Humidity;BMP_temperature;BMP_pressure;BME280_temperature;BME280_humidity;BME280_pressure;Samples;Min_cycle;Max_cycle;Signal;HPM_P1;HPM_P2
2023/03/29 00:02:08;;;;;;;2.58;2.47;;;6.70;66.40;;;;;;5003380;28;20278;-68
2023/03/29 00:04:35;;;;;;;2.33;2.22;;;6.70;65.70;;;;;;5003263;28;20200;-68
2023/03/29 00:07:04;;;;;;;2.10;2.00;;;6.70;66.20;;;;;;5000340;28;20291;-68
2023/03/29 00:09:32;;;;;;;2.00;1.90;;;6.70;65.90;;;;;;4998177;28;20225;-68
2023/03/29 00:11:59;;;;;;;1.90;1.80;;;6.70;66.00;;;;;;5001449;28;20206;-68
2023/03/29 00:14:27;;;;;;;2.53;2.42;;;6.60;65.50;;;;;;5004164;28;20220;-68
2023/03/29 00:16:54;;;;;;;2.50;2.40;;;6.60;65.60;;;;;;4998907;28;20200;-68
2023/03/29 00:19:21;;;;;;;2.30;2.20;;;6.60;65.40;;;;;;5003330;28;20286;-67
2023/03/29 00:21:49;;;;;;;1.92;1.83;;;6.60;65.40;;;;;;5001302;28;20299;-68
2023/03/29 00:24:17;;;;;;;2.42;2.33;;;6.60;65.60;;;;;;5002341;28;20692;-67
2023/03/29 00:26:44;;;;;;;2.15;2.05;;;6.60;66.50;;;;;;5000332;28;20765;-68
2023/03/29 00:29:11;;;;;;;1.90;1.80;;;6.60;66.00;;;;;;5002489;28;20389;-68
2023/03/29 00:31:38;;;;;;;1.70;1.60;;;6.50;65.60;;;;;;5001592;28;20835;-68
2023/03/29 00:34:06;;;;;;;1.80;1.70;;;6.50;65.80;;;;;;5001484;28;20220;-68
2023/03/29 00:36:33;;;;;;;2.05;1.95;;;6.50;67.00;;;;;;5000111;28;20231;-68
2023/03/29 00:39:00;;;;;;;2.58;2.47;;;6.40;67.20;;;;;;4999668;28;20255;-67
2023/03/29 00:41:28;;;;;;;2.17;2.08;;;6.30;67.50;;;;;;4999814;28;20255;-68
2023/03/29 00:43:58;;;;;;;2.53;2.42;;;6.20;67.60;;;;;;5001299;28;20228;-68
2023/03/29 00:46:26;;;;;;;2.58;2.47;;;6.20;67.50;;;;;;5001177;28;20283;-68
2023/03/29 00:48:56;;;;;;;2.30;2.20;;;6.20;67.80;;;;;;4998706;28;20286;-68
2023/03/29 00:51:26;;;;;;;2.50;2.40;;;6.10;68.20;;;;;;4998538;28;20287;-67
2023/03/29 00:53:58;;;;;;;1.77;1.77;;;6.10;68.40;;;;;;5002260;28;20315;-68
2023/03/29 00:56:30;;;;;;;1.95;1.85;;;6.00;68.00;;;;;;5000794;28;20661;-68
2023/03/29 00:59:00;;;;;;;2.50;2.40;;;5.90;67.80;;;;;;5002718;28;20861;-68
2023/03/29 01:01:33;;;;;;;2.30;2.20;;;5.90;68.60;;;;;;4999520;28;20204;-68
2023/03/29 01:04:05;;;;;;;2.25;2.15;;;5.90;68.60;;;;;;4995098;28;20204;-68
2023/03/29 01:06:35;;;;;;;2.50;2.40;;;5.80;69.00;;;;;;5000794;28;20204;-68
2023/03/29 01:09:09;;;;;;;2.40;2.30;;;5.80;69.20;;;;;;4998720;28;20217;-68
2023/03/29 01:11:41;;;;;;;2.58;2.47;;;5.90;69.40;;;;;;5001292;28;20251;-68
2023/03/29 01:14:12;;;;;;;2.83;2.67;;;5.90;69.80;;;;;;4999291;28;20307;-68
2023/03/29 01:16:39;;;;;;;2.38;2.28;;;5.90;69.30;;;;;;5001140;28;20201;-67
2023/03/29 01:19:09;;;;;;;2.60;2.50;;;5.80;69.20;;;;;;5000001;28;20307;-67
2023/03/29 01:21:43;;;;;;;2.35;2.25;;;5.80;68.70;;;;;;4997607;28;20320;-67
2023/03/29 01:24:40;;;;;;;2.42;2.33;;;5.90;68.80;;;;;;4999869;28;20292;-67
2023/03/29 01:27:16;;;;;;;2.50;2.40;;;5.90;68.70;;;;;;4999061;28;20251;-68
2023/03/29 01:29:49;;;;;;;2.03;1.92;;;6.00;68.60;;;;;;5000609;28;20228;-68
2023/03/29 01:32:21;;;;;;;2.22;2.13;;;6.00;67.30;;;;;;4999189;28;20255;-67
2023/03/29 01:34:54;;;;;;;2.60;2.47;;;6.00;67.60;;;;;;4996246;28;20236;-67
2023/03/29 01:37:25;;;;;;;2.10;1.90;;;6.00;67.60;;;;;;4999053;28;20196;-67
2023/03/29 01:39:52;;;;;;;2.60;2.50;;;6.00;67.60;;;;;;4999259;28;20791;-67
2023/03/29 01:42:32;;;;;;;1.90;1.80;;;6.00;67.60;;;;;;5000155;28;20216;-68
2023/03/29 01:45:09;;;;;;;2.38;2.28;;;5.90;68.00;;;;;;5000056;28;20204;-68
2023/03/29 01:47:45;;;;;;;2.22;2.13;;;5.90;68.70;;;;;;5000634;28;20250;-67
2023/03/29 01:50:16;;;;;;;2.47;2.38;;;5.90;69.30;;;;;;5000748;28;20224;-68
2023/03/29 01:52:48;;;;;;;2.33;2.22;;;5.90;69.50;;;;;;5001215;28;20696;-68
2023/03/29 01:55:20;;;;;;;2.53;2.42;;;5.90;70.00;;;;;;5003074;28;20696;-68
2023/03/29 01:57:48;;;;;;;2.50;2.40;;;6.00;70.00;;;;;;5002583;28;20618;-68
2023/03/29 02:00:23;;;;;;;2.20;2.10;;;6.00;69.60;;;;;;5003274;28;20765;-67
2023/03/29 02:02:53;;;;;;;2.47;2.38;;;5.90;69.10;;;;;;5005679;28;20203;-67
2023/03/29 02:05:23;;;;;;;2.22;2.13;;;5.90;68.80;;;;;;5005025;28;20204;-67
2023/03/29 02:07:51;;;;;;;2.20;2.10;;;5.80;68.80;;;;;;5003144;28;20883;-67
2023/03/29 02:10:20;;;;;;;2.70;2.60;;;5.80;69.20;;;;;;5002868;28;20220;-66
2023/03/29 02:12:47;;;;;;;2.03;1.92;;;5.70;69.20;;;;;;5003693;28;20204;-67
2023/03/29 02:15:18;;;;;;;2.53;2.42;;;5.60;69.20;;;;;;5004074;28;20225;-67
2023/03/29 02:17:46;;;;;;;2.53;2.42;;;5.60;70.10;;;;;;5004596;28;20196;-67
2023/03/29 02:20:17;;;;;;;2.60;2.50;;;5.70;70.50;;;;;;5004704;28;20244;-68
2023/03/29 02:22:51;;;;;;;2.65;2.55;;;5.70;70.30;;;;;;5004458;28;20201;-68
2023/03/29 02:25:21;;;;;;;2.78;2.58;;;5.70;69.60;;;;;;5006242;28;20247;-67
2023/03/29 02:27:49;;;;;;;2.63;2.53;;;5.70;70.20;;;;;;5003292;28;20218;-68
2023/03/29 02:30:19;;;;;;;2.47;2.38;;;5.70;70.40;;;;;;5002075;28;20346;-67
2023/03/29 02:32:55;;;;;;;2.55;2.45;;;5.70;70.30;;;;;;5000866;28;20300;-68
2023/03/29 02:35:27;;;;;;;2.72;2.63;;;5.70;70.30;;;;;;5003005;28;20216;-68
2023/03/29 02:37:58;;;;;;;3.03;2.83;;;5.70;70.70;;;;;;5005924;28;20200;-68
2023/03/29 02:40:26;;;;;;;2.60;2.50;;;5.70;69.80;;;;;;5000253;28;20216;-68
2023/03/29 02:42:55;;;;;;;2.30;2.20;;;5.60;69.60;;;;;;5000557;28;20906;-68
2023/03/29 02:45:25;;;;;;;2.67;2.58;;;5.60;70.20;;;;;;5001397;28;20196;-68
2023/03/29 02:47:56;;;;;;;2.88;2.67;;;5.60;70.60;;;;;;5003587;28;20208;-67
2023/03/29 02:50:28;;;;;;;2.67;2.58;;;5.60;70.90;;;;;;5001152;28;20340;-68
2023/03/29 02:53:00;;;;;;;2.63;2.53;;;5.60;70.80;;;;;;5002019;28;20279;-67
2023/03/29 02:55:33;;;;;;;2.67;2.58;;;5.60;71.20;;;;;;5005263;28;20224;-67
2023/03/29 02:58:02;;;;;;;2.30;2.20;;;5.60;71.90;;;;;;5018901;28;20219;-68
2023/03/29 03:00:30;;;;;;;2.33;2.22;;;5.50;73.00;;;;;;5003800;28;20945;-67
2023/03/29 03:02:58;;;;;;;2.88;2.65;;;5.50;73.00;;;;;;5003519;28;20268;-67
2023/03/29 03:05:25;;;;;;;2.53;2.42;;;5.50;72.50;;;;;;4998192;28;20854;-67
2023/03/29 03:07:52;;;;;;;2.65;2.55;;;5.50;72.30;;;;;;5004244;28;20295;-67
2023/03/29 03:10:19;;;;;;;2.28;2.17;;;5.50;72.50;;;;;;5001970;28;20315;-68
2023/03/29 03:12:47;;;;;;;2.63;2.53;;;5.50;72.40;;;;;;5000625;28;20205;-67
2023/03/29 03:15:14;;;;;;;2.50;2.40;;;5.50;73.00;;;;;;5003184;28;20231;-67
2023/03/29 03:17:43;;;;;;;2.72;2.63;;;5.50;72.70;;;;;;5001202;28;20274;-67
2023/03/29 03:20:12;;;;;;;2.50;2.40;;;5.50;72.60;;;;;;5001312;28;20221;-67
2023/03/29 03:22:40;;;;;;;2.55;2.45;;;5.50;72.60;;;;;;5001287;28;20677;-67
2023/03/29 03:25:10;;;;;;;2.40;2.30;;;5.50;72.60;;;;;;4997290;28;20956;-68
2023/03/29 03:27:38;;;;;;;2.70;2.60;;;5.50;72.80;;;;;;5002131;28;20208;-67
2023/03/29 03:30:07;;;;;;;2.70;2.60;;;5.50;72.50;;;;;;5000798;28;20799;-67
2023/03/29 03:32:35;;;;;;;2.58;2.47;;;5.50;72.90;;;;;;4998582;28;20258;-67
2023/03/29 03:35:04;;;;;;;2.20;2.10;;;5.50;72.00;;;;;;4998873;28;20311;-67
2023/03/29 03:37:31;;;;;;;2.78;2.65;;;5.50;71.50;;;;;;5002206;28;20243;-67
2023/03/29 03:39:58;;;;;;;2.72;2.63;;;5.50;71.50;;;;;;4999632;28;20247;-67
2023/03/29 03:42:28;;;;;;;2.58;2.47;;;5.50;71.40;;;;;;4996068;28;20255;-67
2023/03/29 03:44:56;;;;;;;2.20;2.10;;;5.60;71.60;;;;;;4998737;28;20287;-67
2023/03/29 03:47:23;;;;;;;2.63;2.53;;;5.60;71.40;;;;;;5001282;28;20470;-67
2023/03/29 03:49:51;;;;;;;2.45;2.25;;;5.60;71.60;;;;;;5001935;28;20285;-67
2023/03/29 03:52:20;;;;;;;2.13;2.03;;;5.70;72.40;;;;;;4996907;28;20352;-67
2023/03/29 03:54:48;;;;;;;2.42;2.33;;;5.70;72.80;;;;;;4997160;28;20247;-67
2023/03/29 03:57:16;;;;;;;2.60;2.50;;;5.70;72.90;;;;;;5001617;28;20193;-67
2023/03/29 03:59:43;;;;;;;2.80;2.70;;;5.70;73.20;;;;;;5003799;28;20302;-68
2023/03/29 04:02:11;;;;;;;2.60;2.50;;;5.70;72.80;;;;;;4998508;28;20678;-68
2023/03/29 04:04:39;;;;;;;2.20;2.10;;;5.70;73.00;;;;;;5001355;28;20204;-68
2023/03/29 04:07:06;;;;;;;2.90;2.78;;;5.80;73.00;;;;;;5002364;28;20205;-68
2023/03/29 04:09:35;;;;;;;2.42;2.33;;;5.80;73.40;;;;;;4999448;28;20316;-68
2023/03/29 04:12:02;;;;;;;2.65;2.55;;;5.80;73.40;;;;;;4997532;28;20232;-68
2023/03/29 04:14:31;;;;;;;2.53;2.42;;;5.80;71.60;;;;;;5000732;28;20282;-67
2023/03/29 04:16:58;;;;;;;2.17;2.08;;;5.80;72.10;;;;;;5000531;28;20228;-67
2023/03/29 04:19:25;;;;;;;2.42;2.33;;;5.80;72.50;;;;;;5002484;28;20228;-67
2023/03/29 04:21:51;;;;;;;2.40;2.30;;;5.80;73.00;;;;;;5003345;28;20266;-68
2023/03/29 04:24:19;;;;;;;2.83;2.72;;;5.80;72.60;;;;;;5001020;28;20303;-67
2023/03/29 04:26:47;;;;;;;2.33;2.22;;;5.80;72.80;;;;;;5000062;28;20279;-67
2023/03/29 04:29:14;;;;;;;3.00;2.80;;;5.70;72.90;;;;;;5001758;28;20238;-68
2023/03/29 04:31:41;;;;;;;2.72;2.53;;;5.80;73.00;;;;;;5004795;28;20287;-68
2023/03/29 04:34:08;;;;;;;3.63;3.35;;;5.80;73.20;;;;;;5007280;28;20242;-68
2023/03/29 04:36:35;;;;;;;3.50;3.28;;;5.80;73.00;;;;;;5006356;28;20767;-68
2023/03/29 04:39:03;;;;;;;3.72;3.50;;;5.80;72.80;;;;;;5002340;28;20296;-68
2023/03/29 04:41:31;;;;;;;3.58;3.38;;;5.70;73.20;;;;;;5001793;28;20205;-68
2023/03/29 04:44:01;;;;;;;3.72;3.53;;;5.70;73.60;;;;;;5002098;28;20224;-67
2023/03/29 04:46:28;;;;;;;3.55;3.35;;;5.70;73.90;;;;;;5002787;28;20209;-67
2023/03/29 04:48:56;;;;;;;3.53;3.33;;;5.70;73.60;;;;;;5005887;28;20697;-67
2023/03/29 04:51:23;;;;;;;3.15;2.95;;;5.70;73.60;;;;;;5001494;28;20693;-67
2023/03/29 04:53:50;;;;;;;3.40;3.20;;;5.70;74.10;;;;;;5002327;28;21290;-67
2023/03/29 04:56:17;;;;;;;2.80;2.70;;;5.60;74.20;;;;;;4999314;28;20243;-67
2023/03/29 04:58:44;;;;;;;3.03;2.80;;;5.60;74.80;;;;;;4999861;28;20312;-68
2023/03/29 05:01:12;;;;;;;2.90;2.70;;;5.60;75.50;;;;;;5002417;28;20290;-67
2023/03/29 05:03:39;;;;;;;2.80;2.60;;;5.50;75.10;;;;;;5001928;28;20239;-67
2023/03/29 05:06:11;;;;;;;2.88;2.78;;;5.40;75.80;;;;;;5000582;28;20201;-67
2023/03/29 05:08:39;;;;;;;2.78;2.67;;;5.40;75.00;;;;;;4998504;28;20644;-67
2023/03/29 05:11:07;;;;;;;3.10;2.90;;;5.40;75.00;;;;;;4999559;28;20258;-67
2023/03/29 05:13:35;;;;;;;2.80;2.65;;;5.30;75.20;;;;;;4999666;28;21125;-67
2023/03/29 05:16:02;;;;;;;2.40;2.30;;;5.30;74.50;;;;;;4999839;28;20258;-67
2023/03/29 05:18:31;;;;;;;2.72;2.53;;;5.30;74.20;;;;;;5001224;28;20212;-67
2023/03/29 05:20:59;;;;;;;2.90;2.80;;;5.30;74.30;;;;;;5001005;28;20220;-67
2023/03/29 05:23:27;;;;;;;2.42;2.33;;;5.30;73.30;;;;;;4998050;28;20723;-68
2023/03/29 05:25:55;;;;;;;2.90;2.70;;;5.30;73.10;;;;;;5002749;28;20213;-67
2023/03/29 05:28:22;;;;;;;2.83;2.72;;;5.40;73.70;;;;;;5001098;28;20287;-67
2023/03/29 05:31:00;;;;;;;2.67;2.58;;;5.50;74.50;;;;;;5003962;28;20307;-67
2023/03/29 05:33:27;;;;;;;2.47;2.38;;;5.50;74.20;;;;;;5001577;28;20710;-68
2023/03/29 05:36:01;;;;;;;2.60;2.50;;;5.60;74.90;;;;;;5006301;28;20208;-67
2023/03/29 05:38:29;;;;;;;2.50;2.40;;;5.70;75.30;;;;;;5002153;28;20237;-67
2023/03/29 05:40:57;;;;;;;3.03;2.83;;;5.70;75.30;;;;;;5002780;28;20259;-68
2023/03/29 05:43:24;;;;;;;3.47;2.72;;;5.70;75.60;;;;;;5002220;28;20204;-67
2023/03/29 05:45:52;;;;;;;2.55;2.45;;;5.70;75.90;;;;;;5002876;28;20196;-67
2023/03/29 05:48:21;;;;;;;2.40;2.30;;;5.80;75.90;;;;;;5003812;28;20205;-67
2023/03/29 05:50:48;;;;;;;2.88;2.67;;;5.80;75.90;;;;;;5003130;28;20231;-67
2023/03/29 05:53:17;;;;;;;2.75;2.63;;;5.90;75.70;;;;;;5004698;28;20197;-67
2023/03/29 05:55:45;;;;;;;2.42;2.33;;;6.00;76.00;;;;;;5002847;28;20282;-67
2023/03/29 05:58:14;;;;;;;2.65;2.55;;;6.10;75.50;;;;;;5000001;28;20255;-68
2023/03/29 06:00:41;;;;;;;2.45;2.35;;;6.20;75.40;;;;;;5002727;28;20224;-67
2023/03/29 06:03:15;;;;;;;2.67;2.58;;;6.20;75.70;;;;;;5003746;28;20204;-68
2023/03/29 06:05:42;;;;;;;2.85;2.65;;;6.20;76.50;;;;;;5004995;28;20222;-68
2023/03/29 06:08:10;;;;;;;2.63;2.53;;;6.30;77.30;;;;;;5001724;28;20283;-68
2023/03/29 06:10:39;;;;;;;2.35;2.25;;;6.30;78.00;;;;;;5002507;28;20744;-68
2023/03/29 06:13:07;;;;;;;2.63;2.53;;;6.40;78.30;;;;;;5002718;28;20295;-67
2023/03/29 06:15:35;;;;;;;2.60;2.40;;;6.50;78.70;;;;;;5005286;28;20306;-68
2023/03/29 06:18:02;;;;;;;2.92;2.60;;;6.60;78.90;;;;;;5004596;28;20204;-67
2023/03/29 06:20:29;;;;;;;2.75;2.55;;;6.70;79.30;;;;;;5002985;28;20279;-67
2023/03/29 06:22:56;;;;;;;2.80;2.65;;;7.00;81.40;;;;;;5002803;28;20200;-67
2023/03/29 06:25:23;;;;;;;3.42;3.22;;;7.10;84.60;;;;;;5005315;28;20257;-67
2023/03/29 06:27:53;;;;;;;2.97;2.78;;;7.20;88.50;;;;;;5002143;28;20218;-67
2023/03/29 06:30:20;;;;;;;2.95;2.65;;;7.20;88.30;;;;;;4998843;28;20233;-67
2023/03/29 06:32:48;;;;;;;4.22;3.33;;;7.20;90.40;;;;;;5003809;28;20602;-68
2023/03/29 06:35:15;;;;;;;2.50;2.40;;;7.10;91.30;;;;;;5005912;28;20208;-68
2023/03/29 06:37:48;;;;;;;2.65;2.45;;;7.10;92.00;;;;;;5000214;28;20220;-70
2023/03/29 06:40:17;;;;;;;4.22;2.50;;;7.10;92.20;;;;;;4999810;28;20227;-69
2023/03/29 06:42:45;;;;;;;2.90;2.80;;;7.20;93.60;;;;;;5004593;28;20208;-69
2023/03/29 06:45:14;;;;;;;3.00;2.90;;;7.30;93.00;;;;;;5001025;28;20272;-69
2023/03/29 06:47:43;;;;;;;2.05;1.95;;;7.40;93.80;;;;;;5001636;28;20693;-69
2023/03/29 06:50:10;;;;;;;2.95;2.70;;;7.40;94.90;;;;;;5004379;28;20964;-69
2023/03/29 06:52:37;;;;;;;3.78;3.55;;;7.40;95.20;;;;;;5004405;28;20291;-69
2023/03/29 06:55:07;;;;;;;6.07;5.63;;;7.50;94.90;;;;;;5002507;28;20233;-69
2023/03/29 06:57:34;;;;;;;8.25;4.68;;;7.50;96.00;;;;;;5005771;28;20247;-69
2023/03/29 07:00:12;;;;;;;6.18;5.63;;;7.50;97.10;;;;;;5003407;28;20224;-68
2023/03/29 07:02:41;;;;;;;6.50;4.78;;;7.50;97.10;;;;;;5003307;28;20703;-69
2023/03/29 07:05:11;;;;;;;5.13;4.63;;;7.60;97.60;;;;;;5004792;28;20207;-69
2023/03/29 07:07:52;;;;;;;5.07;4.57;;;7.60;98.30;;;;;;5001803;28;20204;-69
2023/03/29 07:10:20;;;;;;;3.53;3.30;;;7.70;98.00;;;;;;4999886;28;20224;-69
2023/03/29 07:12:48;;;;;;;5.07;3.00;;;7.70;98.40;;;;;;5004576;28;20250;-69
2023/03/29 07:15:15;;;;;;;2.60;2.50;;;7.70;99.70;;;;;;5003581;28;20209;-69
2023/03/29 07:17:44;;;;;;;2.50;2.22;;;7.60;99.50;;;;;;5004551;28;20225;-69
2023/03/29 07:20:13;;;;;;;2.47;2.28;;;7.70;99.90;;;;;;5001449;28;20220;-69
2023/03/29 07:22:40;;;;;;;2.60;2.50;;;7.80;99.90;;;;;;4999632;28;22628;-69
2023/03/29 07:25:09;;;;;;;2.75;2.58;;;7.90;99.90;;;;;;5001177;28;20588;-69
2023/03/29 07:27:36;;;;;;;2.53;2.33;;;8.20;99.90;;;;;;4999615;28;20315;-69
2023/03/29 07:30:09;;;;;;;2.00;1.90;;;8.30;99.90;;;;;;5000205;28;20228;-69
2023/03/29 07:32:36;;;;;;;2.63;2.42;;;8.40;99.90;;;;;;5003817;28;20227;-69
2023/03/29 07:35:05;;;;;;;3.15;2.85;;;8.40;99.90;;;;;;5002881;28;20204;-70
2023/03/29 07:37:35;;;;;;;2.67;2.58;;;8.40;99.90;;;;;;4998807;28;20302;-70
2023/03/29 07:40:08;;;;;;;3.35;2.00;;;8.40;99.90;;;;;;4997999;28;20224;-70
2023/03/29 07:42:35;;;;;;;2.72;2.53;;;8.40;99.90;;;;;;4997433;28;20708;-70
2023/03/29 07:45:03;;;;;;;2.67;2.58;;;8.40;99.90;;;;;;4996508;28;20208;-68
2023/03/29 07:47:30;;;;;;;2.28;2.08;;;8.50;99.90;;;;;;4995192;28;20215;-69
2023/03/29 07:49:57;;;;;;;2.67;2.47;;;8.60;99.90;;;;;;4997578;28;20835;-69
2023/03/29 07:52:28;;;;;;;2.10;2.00;;;8.90;99.90;;;;;;5000430;28;20205;-69
2023/03/29 07:54:55;;;;;;;3.13;2.70;;;9.10;99.90;;;;;;4997781;28;20262;-69
2023/03/29 07:57:23;;;;;;;2.08;1.88;;;9.30;99.90;;;;;;4997349;28;20323;-69
2023/03/29 07:59:51;;;;;;;2.40;2.30;;;9.40;99.90;;;;;;4995925;28;20732;-70
2023/03/29 08:02:18;;;;;;;2.50;2.40;;;9.50;99.90;;;;;;4998207;28;20291;-70
2023/03/29 08:04:45;;;;;;;3.38;2.92;;;9.70;99.90;;;;;;5000289;28;20239;-71
2023/03/29 08:07:13;;;;;;;3.22;2.63;;;10.00;99.90;;;;;;5000726;28;20208;-70
2023/03/29 08:09:42;;;;;;;2.92;2.78;;;10.20;99.90;;;;;;5001074;28;20312;-69
2023/03/29 08:12:09;;;;;;;2.55;2.35;;;10.40;99.90;;;;;;5000375;28;20222;-68
2023/03/29 08:14:37;;;;;;;2.47;2.28;;;10.60;99.90;;;;;;5000494;28;20673;-68
2023/03/29 08:17:04;;;;;;;2.42;2.30;;;10.80;99.90;;;;;;4999603;28;20223;-69
2023/03/29 08:19:32;;;;;;;2.40;2.20;;;10.90;99.90;;;;;;4999570;28;20216;-69
2023/03/29 08:22:00;;;;;;;2.60;2.50;;;11.30;99.90;;;;;;5002744;28;20200;-68
2023/03/29 08:24:28;;;;;;;2.45;1.98;;;11.30;99.90;;;;;;5000687;28;20283;-69
2023/03/29 08:26:56;;;;;;;2.53;2.30;;;11.30;99.90;;;;;;4998445;28;20296;-69
2023/03/29 08:29:23;;;;;;;2.28;2.15;;;11.50;99.90;;;;;;5001535;28;20251;-68
2023/03/29 08:31:50;;;;;;;2.67;2.47;;;11.60;99.70;;;;;;5000825;28;20266;-69
2023/03/29 08:34:17;;;;;;;2.60;2.40;;;11.80;99.90;;;;;;4997530;28;20204;-69
2023/03/29 08:36:44;;;;;;;2.38;2.20;;;11.70;99.90;;;;;;5000842;28;20862;-69
2023/03/29 08:39:11;;;;;;;3.05;2.85;;;11.50;99.50;;;;;;5002205;28;20692;-69
2023/03/29 08:41:52;;;;;;;2.80;2.60;;;11.60;99.90;;;;;;5003963;28;20282;-69
2023/03/29 08:44:32;;;;;;;2.65;2.45;;;11.50;99.80;;;;;;4999676;28;20311;-69
2023/03/29 08:47:11;;;;;;;3.13;2.38;;;11.70;99.90;;;;;;5001447;28;20200;-69
2023/03/29 08:49:42;;;;;;;2.78;2.60;;;11.90;99.30;;;;;;5001848;28;20234;-69
2023/03/29 08:52:20;;;;;;;2.55;2.40;;;12.10;99.30;;;;;;4997683;28;20270;-69
2023/03/29 08:54:50;;;;;;;3.97;2.85;;;12.10;99.50;;;;;;4999332;28;20200;-69
2023/03/29 08:57:22;;;;;;;2.03;1.92;;;12.20;98.60;;;;;;5000099;28;20307;-68
2023/03/29 08:59:53;;;;;;;2.25;2.15;;;12.60;98.40;;;;;;4996967;28;20255;-69
2023/03/29 09:02:24;;;;;;;5.22;2.22;;;13.00;98.50;;;;;;5002832;28;20340;-69
2023/03/29 09:04:56;;;;;;;2.53;2.33;;;13.20;98.40;;;;;;5004258;28;20669;-70
2023/03/29 09:07:23;;;;;;;2.60;2.40;;;13.50;98.20;;;;;;5004111;28;20287;-70
2023/03/29 09:09:50;;;;;;;2.03;1.92;;;13.50;97.70;;;;;;5004189;28;20232;-69
2023/03/29 09:12:28;;;;;;;2.30;2.05;;;13.10;97.10;;;;;;5003357;28;20653;-69
2023/03/29 09:15:08;;;;;;;2.70;2.30;;;13.00;97.10;;;;;;5000670;28;20200;-70
2023/03/29 09:17:42;;;;;;;2.35;2.10;;;12.90;96.90;;;;;;5003426;28;20256;-71
2023/03/29 09:20:21;;;;;;;2.33;2.13;;;13.00;97.20;;;;;;4999746;28;20716;-72
2023/03/29 09:22:56;;;;;;;2.30;2.10;;;12.90;96.90;;;;;;5001549;28;20303;-70
2023/03/29 09:25:28;;;;;;;2.38;2.15;;;13.10;96.90;;;;;;5006852;28;20207;-71
2023/03/29 09:28:02;;;;;;;3.35;2.17;;;13.40;97.10;;;;;;5005776;28;21127;-71
2023/03/29 09:30:34;;;;;;;1.92;1.83;;;13.30;97.20;;;;;;5001909;28;20666;-71
2023/03/29 09:33:10;;;;;;;2.22;2.10;;;13.40;96.90;;;;;;4998233;28;20286;-71
2023/03/29 09:35:42;;;;;;;3.53;2.33;;;13.60;96.40;;;;;;5005890;28;20287;-71
2023/03/29 09:38:12;;;;;;;2.28;2.08;;;13.60;96.60;;;;;;5004993;28;20249;-71
2023/03/29 09:40:43;;;;;;;3.50;2.70;;;13.70;96.60;;;;;;5003422;28;20255;-71
2023/03/29 09:43:14;;;;;;;1.80;1.70;;;13.50;95.90;;;;;;5000149;28;20289;-70
2023/03/29 09:45:43;;;;;;;2.92;2.20;;;13.50;96.40;;;;;;5003222;28;20251;-70
2023/03/29 09:48:13;;;;;;;3.15;2.55;;;13.70;96.50;;;;;;5002703;28;20231;-70
2023/03/29 09:50:42;;;;;;;3.95;2.60;;;13.50;96.10;;;;;;5002039;28;20310;-71
2023/03/29 09:53:09;;;;;;;2.90;2.70;;;13.20;96.60;;;;;;5003448;28;20204;-71
2023/03/29 09:55:39;;;;;;;3.03;2.63;;;13.30;96.90;;;;;;5003126;28;20556;-71
2023/03/29 09:58:13;;;;;;;2.75;2.55;;;13.40;96.90;;;;;;5003124;28;20227;-70
2023/03/29 10:00:42;;;;;;;2.90;2.70;;;13.30;96.80;;;;;;5001271;28;20710;-71
2023/03/29 10:03:09;;;;;;;2.65;2.42;;;13.50;96.60;;;;;;5005014;28;20200;-72
2023/03/29 10:05:36;;;;;;;3.22;2.88;;;13.70;96.70;;;;;;5002141;28;20740;-71
2023/03/29 10:08:17;;;;;;;2.88;2.67;;;13.80;96.30;;;;;;5004840;28;20196;-71
2023/03/29 10:10:45;;;;;;;3.10;2.80;;;13.70;96.80;;;;;;5003623;28;20232;-71
2023/03/29 10:13:17;;;;;;;3.22;2.95;;;13.70;96.00;;;;;;5003180;28;20282;-70
2023/03/29 10:15:57;;;;;;;2.85;2.65;;;13.70;96.00;;;;;;5001942;28;20211;-70
2023/03/29 10:18:26;;;;;;;2.53;2.33;;;13.60;96.10;;;;;;5001451;28;20291;-71
2023/03/29 10:20:59;;;;;;;6.45;3.00;;;13.90;96.90;;;;;;5004710;28;20230;-70
2023/03/29 10:23:31;;;;;;;2.92;2.72;;;14.10;95.80;;;;;;5003854;28;20202;-69
2023/03/29 10:25:58;;;;;;;3.42;2.47;;;14.10;96.50;;;;;;5001944;28;20266;-69
2023/03/29 10:28:29;;;;;;;3.13;2.88;;;14.30;95.60;;;;;;5001031;28;20239;-70
2023/03/29 10:31:00;;;;;;;3.00;2.80;;;14.30;95.00;;;;;;5002236;28;20224;-70
2023/03/29 10:33:31;;;;;;;2.75;2.55;;;14.10;95.40;;;;;;4998877;28;20693;-70
2023/03/29 10:35:59;;;;;;;2.85;2.65;;;14.40;95.40;;;;;;5001986;28;20227;-71
2023/03/29 10:38:29;;;;;;;3.92;2.58;;;14.70;95.30;;;;;;5002283;28;20608;-72
2023/03/29 10:41:06;;;;;;;4.47;3.17;;;14.70;94.70;;;;;;5020667;28;20255;-70
2023/03/29 10:43:39;;;;;;;3.05;2.85;;;14.70;93.70;;;;;;5002650;28;20200;-70
2023/03/29 10:46:11;;;;;;;3.00;2.80;;;14.80;93.80;;;;;;5002730;28;20283;-70
2023/03/29 10:48:40;;;;;;;3.65;3.08;;;15.00;94.40;;;;;;5004356;28;20208;-70
2023/03/29 10:51:07;;;;;;;3.00;2.80;;;15.00;94.80;;;;;;5004975;28;20219;-70
2023/03/29 10:53:36;;;;;;;3.67;2.65;;;15.30;94.60;;;;;;5000541;28;22019;-72
2023/03/29 10:56:17;;;;;;;3.30;2.90;;;15.10;93.80;;;;;;5004917;28;20292;-72
2023/03/29 10:58:56;;;;;;;3.35;3.05;;;14.90;94.00;;;;;;5000698;28;20312;-71
2023/03/29 11:01:31;;;;;;;2.90;2.70;;;15.00;94.60;;;;;;5000965;28;20208;-71
2023/03/29 11:04:08;;;;;;;2.80;2.60;;;15.10;94.50;;;;;;4999016;28;20290;-71
2023/03/29 11:06:41;;;;;;;3.00;2.80;;;15.20;94.60;;;;;;5000102;28;20227;-71
2023/03/29 11:09:20;;;;;;;3.30;2.70;;;15.20;93.80;;;;;;5001141;28;20575;-71
2023/03/29 11:12:02;;;;;;;2.95;2.70;;;15.20;93.80;;;;;;5002601;28;20231;-70
2023/03/29 11:14:39;;;;;;;3.40;3.10;;;15.20;93.40;;;;;;4998768;28;20201;-71
2023/03/29 11:17:22;;;;;;;2.70;2.50;;;15.40;93.50;;;;;;5003392;28;20303;-70
2023/03/29 11:20:12;;;;;;;3.92;3.10;;;15.30;94.00;;;;;;4999936;28;20324;-72
2023/03/29 11:22:46;;;;;;;3.25;2.78;;;15.40;93.70;;;;;;5000564;28;20287;-70
2023/03/29 11:25:25;;;;;;;3.40;3.10;;;15.60;93.60;;;;;;5001309;28;20204;-70
2023/03/29 11:28:01;;;;;;;3.30;2.92;;;15.60;93.40;;;;;;5000941;28;20358;-71
2023/03/29 11:30:35;;;;;;;3.35;3.13;;;15.80;93.20;;;;;;5001868;28;20301;-70
2023/03/29 11:33:16;;;;;;;3.55;2.72;;;15.80;93.40;;;;;;5002453;28;20199;-72
2023/03/29 11:35:55;;;;;;;2.90;2.70;;;16.00;93.20;;;;;;5000808;28;20239;-72
2023/03/29 11:38:29;;;;;;;2.97;2.75;;;16.00;92.20;;;;;;5000591;28;20662;-70
2023/03/29 11:41:01;;;;;;;2.97;2.78;;;15.80;92.60;;;;;;5003902;28;20247;-72
2023/03/29 11:43:34;;;;;;;2.78;2.55;;;16.10;92.90;;;;;;5001055;28;20214;-72
2023/03/29 11:46:09;;;;;;;3.30;3.00;;;16.10;92.10;;;;;;5001025;28;20864;-72
2023/03/29 11:48:45;;;;;;;3.58;3.20;;;16.20;91.90;;;;;;5006391;28;20258;-72
2023/03/29 11:51:18;;;;;;;3.53;3.22;;;16.00;91.80;;;;;;5003211;28;20208;-72
2023/03/29 11:53:55;;;;;;;4.00;3.13;;;16.10;91.50;;;;;;4998976;28;20227;-70
2023/03/29 11:56:28;;;;;;;4.70;3.03;;;16.20;91.40;;;;;;4998915;28;20616;-71
2023/03/29 11:59:00;;;;;;;3.00;2.80;;;16.50;91.90;;;;;;5002428;28;20216;-72
2023/03/29 12:01:33;;;;;;;3.15;2.95;;;16.50;91.80;;;;;;5000450;28;20428;-72
2023/03/29 12:04:05;;;;;;;3.35;3.05;;;16.50;91.10;;;;;;4997090;28;20728;-72
2023/03/29 12:06:41;;;;;;;2.75;2.53;;;16.40;91.50;;;;;;4993644;28;20208;-72
2023/03/29 12:09:17;;;;;;;3.17;2.88;;;16.60;91.60;;;;;;5002653;28;20250;-72
2023/03/29 12:11:52;;;;;;;3.53;3.17;;;16.70;91.00;;;;;;4999320;28;20200;-73
2023/03/29 12:14:24;;;;;;;3.65;3.35;;;17.00;91.10;;;;;;4999322;28;20278;-73
2023/03/29 12:16:57;;;;;;;3.30;3.00;;;17.20;91.10;;;;;;4998040;28;20292;-72
2023/03/29 12:19:30;;;;;;;3.50;3.22;;;17.30;91.00;;;;;;4996045;28;20259;-71
2023/03/29 12:21:58;;;;;;;3.60;3.30;;;17.00;90.10;;;;;;4995576;28;22073;-71
2023/03/29 12:24:29;;;;;;;4.35;3.30;;;16.70;89.70;;;;;;4995283;28;22025;-73
2023/03/29 12:27:19;;;;;;;3.42;3.03;;;16.60;91.30;;;;;;5003438;28;20215;-73
2023/03/29 12:30:16;;;;;;;3.50;3.08;;;16.80;90.40;;;;;;5006728;28;20319;-73
2023/03/29 12:32:56;;;;;;;4.30;3.33;;;16.90;91.10;;;;;;5003396;28;20212;-72
2023/03/29 12:35:33;;;;;;;3.17;2.85;;;16.80;90.10;;;;;;5000150;28;20227;-73
2023/03/29 12:38:09;;;;;;;3.47;3.17;;;16.70;90.30;;;;;;5000302;28;20475;-73
2023/03/29 12:40:41;;;;;;;3.72;3.42;;;16.80;90.40;;;;;;5001216;28;20263;-72
2023/03/29 12:43:15;;;;;;;3.28;3.00;;;17.10;90.20;;;;;;5014752;28;20709;-71
2023/03/29 12:45:47;;;;;;;3.30;3.00;;;17.30;90.10;;;;;;5000244;28;20287;-72
2023/03/29 12:48:17;;;;;;;4.50;3.08;;;17.30;89.20;;;;;;4998552;28;20205;-71
2023/03/29 12:50:50;;;;;;;3.20;3.00;;;17.30;88.50;;;;;;4992046;28;20227;-71
2023/03/29 12:53:22;;;;;;;3.92;3.28;;;17.10;87.90;;;;;;4998621;28;20206;-71
2023/03/29 12:56:07;;;;;;;3.70;3.35;;;17.30;90.30;;;;;;4991104;28;21934;-71
2023/03/29 12:58:58;;;;;;;3.35;3.15;;;17.70;90.20;;;;;;4995173;28;21964;-70
2023/03/29 13:01:29;;;;;;;4.00;3.05;;;17.70;89.60;;;;;;4992012;28;20237;-72
2023/03/29 13:04:12;;;;;;;3.30;3.00;;;17.70;88.60;;;;;;4997961;28;20485;-72
2023/03/29 13:07:02;;;;;;;3.63;3.33;;;17.70;87.50;;;;;;4996826;28;20204;-72
2023/03/29 13:09:34;;;;;;;4.30;3.90;;;17.60;86.70;;;;;;4997538;28;20252;-72
2023/03/29 13:12:13;;;;;;;3.97;3.67;;;17.60;88.00;;;;;;4996398;28;20204;-74